Terminal Aerodrome Forecast
Issued by NWS

Home | Current Version | Previous Version | Text Only | Print | Product List | Glossary On
Versions: 1 2 3 4 5 6 7 8 9 10 11 12 13 14 15 16 17 18 19 20 21 22 23
000
FTUS46 KMFR 221744
TAFRBG
TAF
KRBG 221744Z 2218/2318 16005KT P6SM -RA OVC014
     FM222200 32002KT P6SM -SHRA BKN020 OVC030
     FM230000 35006KT P6SM -SHRA BKN030 OVC040
     FM230600 00000KT 4SM BR SCT008 OVC020
     FM231100 00000KT 2SM BR BKN005 OVC020=

USA.gov is the U.S. government's official web portal to all federal, state and local government web resources and services.